sensor_id;sensor_type;location;lat;lon;timestamp;P1;durP1;ratioP1;P2;durP2;ratioP2
25946;SDS011;13745;51.470;9.894;2022-08-01T00:00:06;2.83;;;2.50;;
25946;SDS011;13745;51.470;9.894;2022-08-01T00:02:54;3.60;;;2.30;;
25946;SDS011;13745;51.470;9.894;2022-08-01T00:05:42;2.50;;;2.30;;
25946;SDS011;13745;51.470;9.894;2022-08-01T00:08:28;4.05;;;2.70;;
25946;SDS011;13745;51.470;9.894;2022-08-01T00:11:14;4.13;;;2.88;;
25946;SDS011;13745;51.470;9.894;2022-08-01T00:14:00;3.17;;;2.88;;
25946;SDS011;13745;51.470;9.894;2022-08-01T00:16:46;3.50;;;3.17;;
25946;SDS011;13745;51.470;9.894;2022-08-01T00:19:32;3.80;;;3.13;;
25946;SDS011;13745;51.470;9.894;2022-08-01T00:22:19;4.47;;;2.65;;
25946;SDS011;13745;51.470;9.894;2022-08-01T00:25:05;2.88;;;2.58;;
25946;SDS011;13745;51.470;9.894;2022-08-01T00:27:52;3.63;;;2.80;;
25946;SDS011;13745;51.470;9.894;2022-08-01T00:30:38;5.38;;;2.40;;
25946;SDS011;13745;51.470;9.894;2022-08-01T00:33:24;5.50;;;2.67;;
25946;SDS011;13745;51.470;9.894;2022-08-01T00:36:10;4.88;;;2.60;;
25946;SDS011;13745;51.470;9.894;2022-08-01T00:38:57;3.70;;;2.70;;
25946;SDS011;13745;51.470;9.894;2022-08-01T00:41:43;5.60;;;2.75;;
25946;SDS011;13745;51.470;9.894;2022-08-01T00:44:29;2.85;;;2.65;;
25946;SDS011;13745;51.470;9.894;2022-08-01T00:47:15;2.95;;;2.58;;
25946;SDS011;13745;51.470;9.894;2022-08-01T00:50:02;3.58;;;3.03;;
25946;SDS011;13745;51.470;9.894;2022-08-01T00:52:48;5.43;;;3.15;;
25946;SDS011;13745;51.470;9.894;2022-08-01T00:55:36;7.18;;;2.95;;
25946;SDS011;13745;51.470;9.894;2022-08-01T00:58:22;3.28;;;2.97;;
25946;SDS011;13745;51.470;9.894;2022-08-01T01:01:08;3.50;;;2.75;;
25946;SDS011;13745;51.470;9.894;2022-08-01T01:03:54;3.30;;;2.67;;
25946;SDS011;13745;51.470;9.894;2022-08-01T01:06:41;3.67;;;2.97;;
25946;SDS011;13745;51.470;9.894;2022-08-01T01:09:33;4.07;;;3.25;;
25946;SDS011;13745;51.470;9.894;2022-08-01T01:12:28;3.55;;;2.90;;
25946;SDS011;13745;51.470;9.894;2022-08-01T01:15:20;5.25;;;2.38;;
25946;SDS011;13745;51.470;9.894;2022-08-01T01:18:09;2.80;;;2.60;;
25946;SDS011;13745;51.470;9.894;2022-08-01T01:21:00;3.88;;;2.38;;
25946;SDS011;13745;51.470;9.894;2022-08-01T01:23:57;4.63;;;1.88;;
25946;SDS011;13745;51.470;9.894;2022-08-01T01:26:53;3.08;;;1.73;;
25946;SDS011;13745;51.470;9.894;2022-08-01T01:29:48;2.88;;;1.70;;
25946;SDS011;13745;51.470;9.894;2022-08-01T01:32:38;3.42;;;1.85;;
25946;SDS011;13745;51.470;9.894;2022-08-01T01:35:28;6.60;;;2.47;;
25946;SDS011;13745;51.470;9.894;2022-08-01T01:38:18;6.00;;;2.92;;
25946;SDS011;13745;51.470;9.894;2022-08-01T01:41:06;4.00;;;2.85;;
25946;SDS011;13745;51.470;9.894;2022-08-01T01:43:53;3.53;;;2.60;;
25946;SDS011;13745;51.470;9.894;2022-08-01T01:46:42;5.35;;;2.80;;
25946;SDS011;13745;51.470;9.894;2022-08-01T01:49:28;5.15;;;3.55;;
25946;SDS011;13745;51.470;9.894;2022-08-01T01:52:16;5.60;;;3.65;;
25946;SDS011;13745;51.470;9.894;2022-08-01T01:55:04;3.47;;;3.15;;
25946;SDS011;13745;51.470;9.894;2022-08-01T01:57:53;7.78;;;3.83;;
25946;SDS011;13745;51.470;9.894;2022-08-01T02:00:41;4.88;;;3.50;;
25946;SDS011;13745;51.470;9.894;2022-08-01T02:03:31;7.47;;;4.25;;
25946;SDS011;13745;51.470;9.894;2022-08-01T02:06:20;6.53;;;4.93;;
25946;SDS011;13745;51.470;9.894;2022-08-01T02:09:08;5.00;;;4.50;;
25946;SDS011;13745;51.470;9.894;2022-08-01T02:11:54;7.15;;;3.92;;
25946;SDS011;13745;51.470;9.894;2022-08-01T02:14:42;7.68;;;4.97;;
25946;SDS011;13745;51.470;9.894;2022-08-01T02:17:32;9.00;;;4.93;;
25946;SDS011;13745;51.470;9.894;2022-08-01T02:20:24;9.93;;;5.75;;
25946;SDS011;13745;51.470;9.894;2022-08-01T02:23:14;7.30;;;5.25;;
25946;SDS011;13745;51.470;9.894;2022-08-01T02:26:01;6.10;;;5.50;;
25946;SDS011;13745;51.470;9.894;2022-08-01T02:28:53;6.97;;;5.53;;
25946;SDS011;13745;51.470;9.894;2022-08-01T02:31:43;10.68;;;5.63;;
25946;SDS011;13745;51.470;9.894;2022-08-01T02:34:31;9.13;;;5.68;;
25946;SDS011;13745;51.470;9.894;2022-08-01T02:37:21;7.43;;;5.95;;
25946;SDS011;13745;51.470;9.894;2022-08-01T02:40:11;8.20;;;6.50;;
25946;SDS011;13745;51.470;9.894;2022-08-01T02:42:59;11.38;;;5.82;;
25946;SDS011;13745;51.470;9.894;2022-08-01T02:45:48;10.05;;;6.50;;
25946;SDS011;13745;51.470;9.894;2022-08-01T02:48:37;10.13;;;6.57;;
25946;SDS011;13745;51.470;9.894;2022-08-01T02:51:26;8.73;;;6.80;;
25946;SDS011;13745;51.470;9.894;2022-08-01T02:54:15;15.82;;;6.88;;
25946;SDS011;13745;51.470;9.894;2022-08-01T02:57:03;10.13;;;6.68;;
25946;SDS011;13745;51.470;9.894;2022-08-01T02:59:50;10.57;;;6.97;;
25946;SDS011;13745;51.470;9.894;2022-08-01T03:02:39;8.88;;;6.82;;
25946;SDS011;13745;51.470;9.894;2022-08-01T03:05:25;10.00;;;6.53;;
25946;SDS011;13745;51.470;9.894;2022-08-01T03:08:12;9.15;;;6.25;;
25946;SDS011;13745;51.470;9.894;2022-08-01T03:11:02;9.95;;;6.50;;
25946;SDS011;13745;51.470;9.894;2022-08-01T03:13:50;11.27;;;6.80;;
25946;SDS011;13745;51.470;9.894;2022-08-01T03:16:38;11.73;;;7.03;;
25946;SDS011;13745;51.470;9.894;2022-08-01T03:19:26;10.55;;;7.13;;
25946;SDS011;13745;51.470;9.894;2022-08-01T03:22:14;10.55;;;7.10;;
25946;SDS011;13745;51.470;9.894;2022-08-01T03:25:01;13.00;;;6.88;;
25946;SDS011;13745;51.470;9.894;2022-08-01T03:27:53;11.32;;;7.30;;
25946;SDS011;13745;51.470;9.894;2022-08-01T03:30:41;10.18;;;7.10;;
25946;SDS011;13745;51.470;9.894;2022-08-01T03:33:28;11.35;;;7.00;;
25946;SDS011;13745;51.470;9.894;2022-08-01T03:36:14;9.13;;;6.53;;
25946;SDS011;13745;51.470;9.894;2022-08-01T03:39:02;10.68;;;8.00;;
25946;SDS011;13745;51.470;9.894;2022-08-01T03:41:51;10.63;;;7.40;;
25946;SDS011;13745;51.470;9.894;2022-08-01T03:44:43;7.80;;;4.28;;
25946;SDS011;13745;51.470;9.894;2022-08-01T03:47:33;6.10;;;4.60;;
25946;SDS011;13745;51.470;9.894;2022-08-01T03:50:21;3.85;;;2.30;;
25946;SDS011;13745;51.470;9.894;2022-08-01T03:53:08;2.63;;;2.30;;
25946;SDS011;13745;51.470;9.894;2022-08-01T03:55:57;2.28;;;1.88;;
25946;SDS011;13745;51.470;9.894;2022-08-01T03:58:45;3.65;;;2.17;;
25946;SDS011;13745;51.470;9.894;2022-08-01T04:01:32;2.35;;;2.15;;
25946;SDS011;13745;51.470;9.894;2022-08-01T04:04:18;3.03;;;2.10;;
25946;SDS011;13745;51.470;9.894;2022-08-01T04:07:05;4.03;;;2.38;;
25946;SDS011;13745;51.470;9.894;2022-08-01T04:10:06;3.55;;;2.47;;
25946;SDS011;13745;51.470;9.894;2022-08-01T04:12:52;4.20;;;3.30;;
25946;SDS011;13745;51.470;9.894;2022-08-01T04:15:39;4.35;;;3.72;;
25946;SDS011;13745;51.470;9.894;2022-08-01T04:18:26;3.85;;;3.40;;
25946;SDS011;13745;51.470;9.894;2022-08-01T04:21:12;6.28;;;3.25;;
25946;SDS011;13745;51.470;9.894;2022-08-01T04:23:59;4.78;;;3.40;;
25946;SDS011;13745;51.470;9.894;2022-08-01T04:26:49;2.85;;;2.65;;
25946;SDS011;13745;51.470;9.894;2022-08-01T04:29:37;3.17;;;2.88;;
25946;SDS011;13745;51.470;9.894;2022-08-01T04:32:24;5.80;;;2.70;;
25946;SDS011;13745;51.470;9.894;2022-08-01T04:35:13;3.65;;;2.88;;
25946;SDS011;13745;51.470;9.894;2022-08-01T04:38:02;5.68;;;2.75;;
25946;SDS011;13745;51.470;9.894;2022-08-01T04:40:49;3.88;;;2.13;;
25946;SDS011;13745;51.470;9.894;2022-08-01T04:43:37;3.33;;;2.60;;
25946;SDS011;13745;51.470;9.894;2022-08-01T04:46:23;5.55;;;3.38;;
25946;SDS011;13745;51.470;9.894;2022-08-01T04:49:10;5.22;;;3.17;;
25946;SDS011;13745;51.470;9.894;2022-08-01T04:51:57;5.00;;;2.58;;
25946;SDS011;13745;51.470;9.894;2022-08-01T04:54:44;5.57;;;2.70;;
25946;SDS011;13745;51.470;9.894;2022-08-01T04:57:30;3.55;;;2.83;;
25946;SDS011;13745;51.470;9.894;2022-08-01T05:00:17;5.18;;;2.97;;
25946;SDS011;13745;51.470;9.894;2022-08-01T05:03:03;3.35;;;2.92;;
25946;SDS011;13745;51.470;9.894;2022-08-01T05:05:49;5.32;;;3.17;;
25946;SDS011;13745;51.470;9.894;2022-08-01T05:08:36;4.38;;;3.40;;
25946;SDS011;13745;51.470;9.894;2022-08-01T05:11:22;3.45;;;3.15;;
25946;SDS011;13745;51.470;9.894;2022-08-01T05:14:08;4.18;;;3.15;;
25946;SDS011;13745;51.470;9.894;2022-08-01T05:16:54;3.15;;;2.60;;
25946;SDS011;13745;51.470;9.894;2022-08-01T05:19:40;3.63;;;2.80;;
25946;SDS011;13745;51.470;9.894;2022-08-01T05:22:27;2.53;;;2.20;;
25946;SDS011;13745;51.470;9.894;2022-08-01T05:25:14;4.60;;;2.60;;
25946;SDS011;13745;51.470;9.894;2022-08-01T05:28:00;4.13;;;2.72;;
25946;SDS011;13745;51.470;9.894;2022-08-01T05:30:46;3.58;;;2.20;;
25946;SDS011;13745;51.470;9.894;2022-08-01T05:33:32;4.28;;;2.30;;
25946;SDS011;13745;51.470;9.894;2022-08-01T05:36:18;6.05;;;2.50;;
25946;SDS011;13745;51.470;9.894;2022-08-01T05:39:04;5.65;;;2.50;;
25946;SDS011;13745;51.470;9.894;2022-08-01T05:41:51;7.38;;;2.47;;
25946;SDS011;13745;51.470;9.894;2022-08-01T05:44:37;2.83;;;1.95;;
25946;SDS011;13745;51.470;9.894;2022-08-01T05:47:23;3.75;;;2.03;;
25946;SDS011;13745;51.470;9.894;2022-08-01T05:50:08;3.90;;;2.00;;
25946;SDS011;13745;51.470;9.894;2022-08-01T05:52:54;3.53;;;1.90;;
25946;SDS011;13745;51.470;9.894;2022-08-01T05:55:40;3.17;;;1.90;;
25946;SDS011;13745;51.470;9.894;2022-08-01T05:58:27;3.15;;;1.45;;
25946;SDS011;13745;51.470;9.894;2022-08-01T06:01:13;2.75;;;1.60;;
25946;SDS011;13745;51.470;9.894;2022-08-01T06:03:59;4.07;;;1.90;;
25946;SDS011;13745;51.470;9.894;2022-08-01T06:06:45;4.50;;;1.60;;
25946;SDS011;13745;51.470;9.894;2022-08-01T06:09:30;3.10;;;1.67;;
25946;SDS011;13745;51.470;9.894;2022-08-01T06:12:16;1.48;;;1.30;;
25946;SDS011;13745;51.470;9.894;2022-08-01T06:15:04;1.30;;;1.20;;
25946;SDS011;13745;51.470;9.894;2022-08-01T06:17:51;1.45;;;1.35;;
25946;SDS011;13745;51.470;9.894;2022-08-01T06:20:37;1.40;;;1.30;;
25946;SDS011;13745;51.470;9.894;2022-08-01T06:23:22;1.45;;;1.30;;
25946;SDS011;13745;51.470;9.894;2022-08-01T06:26:08;2.40;;;1.30;;
25946;SDS011;13745;51.470;9.894;2022-08-01T06:28:55;1.50;;;1.15;;
25946;SDS011;13745;51.470;9.894;2022-08-01T06:31:42;2.67;;;1.52;;
25946;SDS011;13745;51.470;9.894;2022-08-01T06:34:28;1.10;;;1.00;;
25946;SDS011;13745;51.470;9.894;2022-08-01T06:37:14;1.92;;;1.05;;
25946;SDS011;13745;51.470;9.894;2022-08-01T06:40:00;1.13;;;1.00;;
25946;SDS011;13745;51.470;9.894;2022-08-01T06:42:46;1.65;;;0.95;;
25946;SDS011;13745;51.470;9.894;2022-08-01T06:45:32;1.38;;;1.27;;
25946;SDS011;13745;51.470;9.894;2022-08-01T06:48:19;5.38;;;1.45;;
25946;SDS011;13745;51.470;9.894;2022-08-01T06:51:05;2.17;;;1.17;;
25946;SDS011;13745;51.470;9.894;2022-08-01T06:53:53;2.63;;;1.10;;
25946;SDS011;13745;51.470;9.894;2022-08-01T06:56:39;2.80;;;1.02;;
25946;SDS011;13745;51.470;9.894;2022-08-01T06:59:25;3.22;;;1.20;;
25946;SDS011;13745;51.470;9.894;2022-08-01T07:02:11;3.45;;;1.17;;
25946;SDS011;13745;51.470;9.894;2022-08-01T07:04:58;2.60;;;1.10;;
25946;SDS011;13745;51.470;9.894;2022-08-01T07:07:44;1.10;;;1.00;;
25946;SDS011;13745;51.470;9.894;2022-08-01T07:10:30;1.42;;;1.13;;
25946;SDS011;13745;51.470;9.894;2022-08-01T07:13:16;3.42;;;1.30;;
25946;SDS011;13745;51.470;9.894;2022-08-01T07:16:05;1.85;;;1.45;;
25946;SDS011;13745;51.470;9.894;2022-08-01T07:18:51;2.17;;;1.17;;
25946;SDS011;13745;51.470;9.894;2022-08-01T07:21:38;1.20;;;1.10;;
25946;SDS011;13745;51.470;9.894;2022-08-01T07:24:25;2.13;;;1.10;;
25946;SDS011;13745;51.470;9.894;2022-08-01T07:27:13;1.58;;;1.00;;
25946;SDS011;13745;51.470;9.894;2022-08-01T07:29:59;1.25;;;1.00;;
25946;SDS011;13745;51.470;9.894;2022-08-01T07:32:45;2.15;;;0.90;;
25946;SDS011;13745;51.470;9.894;2022-08-01T07:35:31;1.60;;;1.13;;
25946;SDS011;13745;51.470;9.894;2022-08-01T07:38:18;1.30;;;1.20;;
25946;SDS011;13745;51.470;9.894;2022-08-01T07:41:04;1.65;;;1.10;;
25946;SDS011;13745;51.470;9.894;2022-08-01T07:43:50;2.00;;;1.25;;
25946;SDS011;13745;51.470;9.894;2022-08-01T07:46:36;1.42;;;1.33;;
25946;SDS011;13745;51.470;9.894;2022-08-01T07:49:22;1.75;;;1.60;;
25946;SDS011;13745;51.470;9.894;2022-08-01T07:52:07;1.75;;;1.30;;
25946;SDS011;13745;51.470;9.894;2022-08-01T07:54:55;2.67;;;1.58;;
25946;SDS011;13745;51.470;9.894;2022-08-01T07:57:41;2.72;;;1.38;;
25946;SDS011;13745;51.470;9.894;2022-08-01T08:00:27;1.65;;;1.30;;
25946;SDS011;13745;51.470;9.894;2022-08-01T08:03:12;2.70;;;1.40;;
25946;SDS011;13745;51.470;9.894;2022-08-01T08:05:58;2.10;;;1.70;;
25946;SDS011;13745;51.470;9.894;2022-08-01T08:08:44;1.42;;;1.23;;
25946;SDS011;13745;51.470;9.894;2022-08-01T08:11:32;1.50;;;1.30;;
25946;SDS011;13745;51.470;9.894;2022-08-01T08:14:18;1.88;;;1.23;;
25946;SDS011;13745;51.470;9.894;2022-08-01T08:17:07;1.65;;;1.27;;
25946;SDS011;13745;51.470;9.894;2022-08-01T08:19:52;2.00;;;1.60;;
25946;SDS011;13745;51.470;9.894;2022-08-01T08:22:39;3.97;;;1.42;;
25946;SDS011;13745;51.470;9.894;2022-08-01T08:25:25;4.13;;;1.58;;
25946;SDS011;13745;51.470;9.894;2022-08-01T08:28:13;1.70;;;1.17;;
25946;SDS011;13745;51.470;9.894;2022-08-01T08:30:58;1.50;;;1.15;;
25946;SDS011;13745;51.470;9.894;2022-08-01T08:33:44;1.38;;;1.27;;
25946;SDS011;13745;51.470;9.894;2022-08-01T08:36:30;4.28;;;1.85;;
25946;SDS011;13745;51.470;9.894;2022-08-01T08:39:16;2.13;;;1.30;;
25946;SDS011;13745;51.470;9.894;2022-08-01T08:42:04;2.47;;;1.60;;
25946;SDS011;13745;51.470;9.894;2022-08-01T08:44:53;1.40;;;1.30;;
25946;SDS011;13745;51.470;9.894;2022-08-01T08:47:39;2.55;;;1.20;;
25946;SDS011;13745;51.470;9.894;2022-08-01T08:50:30;4.65;;;1.15;;
25946;SDS011;13745;51.470;9.894;2022-08-01T08:53:16;2.75;;;1.27;;
25946;SDS011;13745;51.470;9.894;2022-08-01T08:56:05;2.45;;;0.93;;
25946;SDS011;13745;51.470;9.894;2022-08-01T08:58:52;1.85;;;1.33;;
25946;SDS011;13745;51.470;9.894;2022-08-01T09:01:40;2.60;;;1.33;;
25946;SDS011;13745;51.470;9.894;2022-08-01T09:04:26;2.40;;;1.90;;
25946;SDS011;13745;51.470;9.894;2022-08-01T09:07:12;1.60;;;1.50;;
25946;SDS011;13745;51.470;9.894;2022-08-01T09:09:58;1.77;;;1.42;;
25946;SDS011;13745;51.470;9.894;2022-08-01T09:13:03;1.40;;;1.25;;
25946;SDS011;13745;51.470;9.894;2022-08-01T09:15:55;2.13;;;1.40;;
25946;SDS011;13745;51.470;9.894;2022-08-01T09:18:44;1.08;;;0.98;;
25946;SDS011;13745;51.470;9.894;2022-08-01T09:21:30;2.97;;;1.40;;
25946;SDS011;13745;51.470;9.894;2022-08-01T09:24:16;1.95;;;1.08;;
25946;SDS011;13745;51.470;9.894;2022-08-01T09:27:14;3.95;;;1.10;;
25946;SDS011;13745;51.470;9.894;2022-08-01T09:30:08;1.70;;;1.10;;
25946;SDS011;13745;51.470;9.894;2022-08-01T09:32:58;0.80;;;0.80;;
25946;SDS011;13745;51.470;9.894;2022-08-01T09:35:47;0.95;;;0.70;;
25946;SDS011;13745;51.470;9.894;2022-08-01T09:38:40;2.40;;;1.27;;
25946;SDS011;13745;51.470;9.894;2022-08-01T09:41:29;1.60;;;0.60;;
25946;SDS011;13745;51.470;9.894;2022-08-01T09:44:16;0.80;;;0.50;;
25946;SDS011;13745;51.470;9.894;2022-08-01T09:47:02;1.90;;;0.43;;
25946;SDS011;13745;51.470;9.894;2022-08-01T09:49:52;1.55;;;0.40;;
25946;SDS011;13745;51.470;9.894;2022-08-01T09:52:40;0.25;;;0.25;;
25946;SDS011;13745;51.470;9.894;2022-08-01T09:55:26;0.63;;;0.30;;
25946;SDS011;13745;51.470;9.894;2022-08-01T09:58:12;0.63;;;0.40;;
25946;SDS011;13745;51.470;9.894;2022-08-01T10:00:58;0.50;;;0.50;;
25946;SDS011;13745;51.470;9.894;2022-08-01T10:03:45;2.58;;;0.50;;
25946;SDS011;13745;51.470;9.894;2022-08-01T10:06:31;2.38;;;0.50;;
25946;SDS011;13745;51.470;9.894;2022-08-01T10:09:27;1.20;;;0.43;;
25946;SDS011;13745;51.470;9.894;2022-08-01T10:12:14;1.58;;;0.40;;
25946;SDS011;13745;51.470;9.894;2022-08-01T10:15:02;0.38;;;0.38;;
25946;SDS011;13745;51.470;9.894;2022-08-01T10:17:51;0.35;;;0.35;;
25946;SDS011;13745;51.470;9.894;2022-08-01T10:20:38;0.25;;;0.22;;
25946;SDS011;13745;51.470;9.894;2022-08-01T10:23:24;0.30;;;0.20;;
25946;SDS011;13745;51.470;9.894;2022-08-01T10:26:13;1.48;;;0.20;;
25946;SDS011;13745;51.470;9.894;2022-08-01T10:28:59;0.22;;;0.20;;
25946;SDS011;13745;51.470;9.894;2022-08-01T10:31:47;0.30;;;0.20;;
25946;SDS011;13745;51.470;9.894;2022-08-01T10:34:33;0.45;;;0.20;;
25946;SDS011;13745;51.470;9.894;2022-08-01T10:37:20;0.20;;;0.20;;
25946;SDS011;13745;51.470;9.894;2022-08-01T10:40:06;0.30;;;0.30;;
25946;SDS011;13745;51.470;9.894;2022-08-01T10:42:55;0.30;;;0.30;;
25946;SDS011;13745;51.470;9.894;2022-08-01T10:45:41;2.42;;;0.30;;
25946;SDS011;13745;51.470;9.894;2022-08-01T10:48:29;0.50;;;0.30;;
25946;SDS011;13745;51.470;9.894;2022-08-01T10:51:18;0.50;;;0.28;;
25946;SDS011;13745;51.470;9.894;2022-08-01T10:54:06;0.38;;;0.38;;
25946;SDS011;13745;51.470;9.894;2022-08-01T10:56:53;1.75;;;0.22;;
25946;SDS011;13745;51.470;9.894;2022-08-01T10:59:48;1.27;;;0.20;;
25946;SDS011;13745;51.470;9.894;2022-08-01T11:02:36;0.45;;;0.38;;
25946;SDS011;13745;51.470;9.894;2022-08-01T11:05:28;0.52;;;0.32;;
25946;SDS011;13745;51.470;9.894;2022-08-01T11:08:20;0.85;;;0.22;;
25946;SDS011;13745;51.470;9.894;2022-08-01T11:11:07;1.40;;;0.30;;
25946;SDS011;13745;51.470;9.894;2022-08-01T11:14:00;0.30;;;0.30;;
25946;SDS011;13745;51.470;9.894;2022-08-01T11:16:49;0.90;;;0.30;;
25946;SDS011;13745;51.470;9.894;2022-08-01T11:26:18;0.10;;;0.10;;
25946;SDS011;13745;51.470;9.894;2022-08-01T11:29:17;0.40;;;0.30;;
25946;SDS011;13745;51.470;9.894;2022-08-01T11:35:12;1.67;;;0.22;;
25946;SDS011;13745;51.470;9.894;2022-08-01T11:38:01;0.40;;;0.40;;
25946;SDS011;13745;51.470;9.894;2022-08-01T11:41:11;0.38;;;0.28;;
25946;SDS011;13745;51.470;9.894;2022-08-01T11:43:58;0.30;;;0.30;;
25946;SDS011;13745;51.470;9.894;2022-08-01T11:46:49;1.23;;;0.30;;
25946;SDS011;13745;51.470;9.894;2022-08-01T11:49:45;2.78;;;0.35;;
25946;SDS011;13745;51.470;9.894;2022-08-01T11:52:33;0.50;;;0.38;;
25946;SDS011;13745;51.470;9.894;2022-08-01T11:55:20;1.27;;;0.30;;
25946;SDS011;13745;51.470;9.894;2022-08-01T11:58:07;1.52;;;0.40;;
25946;SDS011;13745;51.470;9.894;2022-08-01T12:00:53;0.98;;;0.40;;
25946;SDS011;13745;51.470;9.894;2022-08-01T12:03:41;1.27;;;0.50;;
25946;SDS011;13745;51.470;9.894;2022-08-01T12:06:28;0.35;;;0.30;;
25946;SDS011;13745;51.470;9.894;2022-08-01T12:09:15;0.40;;;0.40;;
25946;SDS011;13745;51.470;9.894;2022-08-01T12:12:02;0.30;;;0.30;;
25946;SDS011;13745;51.470;9.894;2022-08-01T12:14:52;0.40;;;0.40;;
25946;SDS011;13745;51.470;9.894;2022-08-01T12:17:40;0.20;;;0.20;;
25946;SDS011;13745;51.470;9.894;2022-08-01T12:20:28;1.00;;;0.30;;
25946;SDS011;13745;51.470;9.894;2022-08-01T12:23:16;0.52;;;0.30;;
25946;SDS011;13745;51.470;9.894;2022-08-01T12:26:02;1.52;;;0.40;;
25946;SDS011;13745;51.470;9.894;2022-08-01T12:28:49;0.88;;;0.30;;
25946;SDS011;13745;51.470;9.894;2022-08-01T12:31:36;0.30;;;0.30;;
25946;SDS011;13745;51.470;9.894;2022-08-01T12:34:26;1.85;;;0.25;;
25946;SDS011;13745;51.470;9.894;2022-08-01T12:37:13;2.72;;;0.32;;
25946;SDS011;13745;51.470;9.894;2022-08-01T12:40:00;0.75;;;0.20;;
25946;SDS011;13745;51.470;9.894;2022-08-01T12:42:54;0.20;;;0.20;;
25946;SDS011;13745;51.470;9.894;2022-08-01T12:45:42;2.70;;;0.32;;
25946;SDS011;13745;51.470;9.894;2022-08-01T12:48:29;0.22;;;0.22;;
25946;SDS011;13745;51.470;9.894;2022-08-01T12:51:16;0.30;;;0.30;;
25946;SDS011;13745;51.470;9.894;2022-08-01T12:54:02;0.50;;;0.50;;
25946;SDS011;13745;51.470;9.894;2022-08-01T12:56:50;0.57;;;0.28;;
25946;SDS011;13745;51.470;9.894;2022-08-01T12:59:37;1.95;;;0.30;;
25946;SDS011;13745;51.470;9.894;2022-08-01T13:02:31;0.50;;;0.30;;
25946;SDS011;13745;51.470;9.894;2022-08-01T13:05:17;1.83;;;0.40;;
25946;SDS011;13745;51.470;9.894;2022-08-01T13:08:08;0.50;;;0.20;;
25946;SDS011;13745;51.470;9.894;2022-08-01T13:10:59;1.33;;;0.27;;
25946;SDS011;13745;51.470;9.894;2022-08-01T13:13:48;0.50;;;0.40;;
25946;SDS011;13745;51.470;9.894;2022-08-01T13:16:45;0.32;;;0.30;;
25946;SDS011;13745;51.470;9.894;2022-08-01T13:19:41;0.65;;;0.30;;
25946;SDS011;13745;51.470;9.894;2022-08-01T13:22:31;0.75;;;0.47;;
25946;SDS011;13745;51.470;9.894;2022-08-01T13:25:18;0.80;;;0.50;;
25946;SDS011;13745;51.470;9.894;2022-08-01T13:28:14;1.33;;;0.40;;
25946;SDS011;13745;51.470;9.894;2022-08-01T13:31:02;2.60;;;0.28;;
25946;SDS011;13745;51.470;9.894;2022-08-01T13:33:49;0.35;;;0.30;;
25946;SDS011;13745;51.470;9.894;2022-08-01T13:36:35;0.30;;;0.30;;
25946;SDS011;13745;51.470;9.894;2022-08-01T13:39:22;0.63;;;0.40;;
25946;SDS011;13745;51.470;9.894;2022-08-01T13:42:26;0.80;;;0.20;;
25946;SDS011;13745;51.470;9.894;2022-08-01T13:45:13;0.47;;;0.20;;
25946;SDS011;13745;51.470;9.894;2022-08-01T13:48:00;0.22;;;0.22;;
25946;SDS011;13745;51.470;9.894;2022-08-01T13:50:46;0.20;;;0.20;;
25946;SDS011;13745;51.470;9.894;2022-08-01T13:53:32;0.30;;;0.30;;
25946;SDS011;13745;51.470;9.894;2022-08-01T13:56:18;0.50;;;0.50;;
25946;SDS011;13745;51.470;9.894;2022-08-01T13:59:04;0.50;;;0.50;;
25946;SDS011;13745;51.470;9.894;2022-08-01T14:01:50;0.40;;;0.40;;
25946;SDS011;13745;51.470;9.894;2022-08-01T14:04:37;0.50;;;0.50;;
25946;SDS011;13745;51.470;9.894;2022-08-01T14:07:23;0.40;;;0.40;;
25946;SDS011;13745;51.470;9.894;2022-08-01T14:10:09;1.33;;;0.57;;
25946;SDS011;13745;51.470;9.894;2022-08-01T14:12:55;0.73;;;0.40;;
25946;SDS011;13745;51.470;9.894;2022-08-01T14:15:42;0.50;;;0.50;;
25946;SDS011;13745;51.470;9.894;2022-08-01T14:18:28;0.50;;;0.50;;
25946;SDS011;13745;51.470;9.894;2022-08-01T14:21:15;0.82;;;0.65;;
25946;SDS011;13745;51.470;9.894;2022-08-01T14:24:01;1.05;;;0.60;;
25946;SDS011;13745;51.470;9.894;2022-08-01T14:26:46;1.08;;;0.40;;
25946;SDS011;13745;51.470;9.894;2022-08-01T14:29:32;0.40;;;0.40;;
25946;SDS011;13745;51.470;9.894;2022-08-01T14:32:18;0.40;;;0.40;;
25946;SDS011;13745;51.470;9.894;2022-08-01T14:35:05;0.50;;;0.50;;
25946;SDS011;13745;51.470;9.894;2022-08-01T14:37:53;0.70;;;0.70;;
25946;SDS011;13745;51.470;9.894;2022-08-01T14:40:39;3.97;;;0.32;;
25946;SDS011;13745;51.470;9.894;2022-08-01T14:43:25;0.77;;;0.40;;
25946;SDS011;13745;51.470;9.894;2022-08-01T14:46:12;1.50;;;0.50;;
25946;SDS011;13745;51.470;9.894;2022-08-01T14:48:58;1.02;;;0.30;;
25946;SDS011;13745;51.470;9.894;2022-08-01T14:51:43;0.50;;;0.17;;
25946;SDS011;13745;51.470;9.894;2022-08-01T14:54:31;0.30;;;0.30;;
25946;SDS011;13745;51.470;9.894;2022-08-01T14:57:16;1.15;;;0.10;;
25946;SDS011;13745;51.470;9.894;2022-08-01T15:00:03;0.20;;;0.20;;
25946;SDS011;13745;51.470;9.894;2022-08-01T15:02:51;0.32;;;0.20;;
25946;SDS011;13745;51.470;9.894;2022-08-01T15:05:37;1.05;;;0.30;;
25946;SDS011;13745;51.470;9.894;2022-08-01T15:08:22;0.43;;;0.28;;
25946;SDS011;13745;51.470;9.894;2022-08-01T15:11:10;1.02;;;0.25;;
25946;SDS011;13745;51.470;9.894;2022-08-01T15:13:56;1.30;;;0.20;;
25946;SDS011;13745;51.470;9.894;2022-08-01T15:16:59;0.43;;;0.30;;
25946;SDS011;13745;51.470;9.894;2022-08-01T15:19:46;4.15;;;0.40;;
25946;SDS011;13745;51.470;9.894;2022-08-01T15:22:32;0.20;;;0.20;;
25946;SDS011;13745;51.470;9.894;2022-08-01T15:25:18;0.77;;;0.25;;
25946;SDS011;13745;51.470;9.894;2022-08-01T15:28:06;0.40;;;0.40;;
25946;SDS011;13745;51.470;9.894;2022-08-01T15:30:52;0.45;;;0.40;;
25946;SDS011;13745;51.470;9.894;2022-08-01T15:33:38;1.10;;;0.30;;
25946;SDS011;13745;51.470;9.894;2022-08-01T15:36:24;0.63;;;0.32;;
25946;SDS011;13745;51.470;9.894;2022-08-01T15:39:10;0.55;;;0.38;;
25946;SDS011;13745;51.470;9.894;2022-08-01T15:41:57;0.68;;;0.40;;
25946;SDS011;13745;51.470;9.894;2022-08-01T15:44:45;0.77;;;0.30;;
25946;SDS011;13745;51.470;9.894;2022-08-01T15:47:30;0.95;;;0.30;;
25946;SDS011;13745;51.470;9.894;2022-08-01T15:50:17;0.40;;;0.40;;
25946;SDS011;13745;51.470;9.894;2022-08-01T15:53:03;0.52;;;0.40;;
25946;SDS011;13745;51.470;9.894;2022-08-01T15:55:49;0.50;;;0.40;;
25946;SDS011;13745;51.470;9.894;2022-08-01T15:58:35;0.73;;;0.30;;
25946;SDS011;13745;51.470;9.894;2022-08-01T16:01:22;2.85;;;0.52;;
25946;SDS011;13745;51.470;9.894;2022-08-01T16:04:10;0.30;;;0.30;;
25946;SDS011;13745;51.470;9.894;2022-08-01T16:06:56;2.05;;;0.40;;
25946;SDS011;13745;51.470;9.894;2022-08-01T16:09:42;1.90;;;0.55;;
25946;SDS011;13745;51.470;9.894;2022-08-01T16:12:27;1.40;;;0.50;;
25946;SDS011;13745;51.470;9.894;2022-08-01T16:15:13;1.02;;;0.60;;
25946;SDS011;13745;51.470;9.894;2022-08-01T16:18:00;0.43;;;0.43;;
25946;SDS011;13745;51.470;9.894;2022-08-01T16:20:46;1.75;;;0.70;;
25946;SDS011;13745;51.470;9.894;2022-08-01T16:23:32;0.52;;;0.52;;
25946;SDS011;13745;51.470;9.894;2022-08-01T16:26:18;0.60;;;0.60;;
25946;SDS011;13745;51.470;9.894;2022-08-01T16:29:04;1.52;;;0.80;;
25946;SDS011;13745;51.470;9.894;2022-08-01T16:31:50;0.98;;;0.93;;
25946;SDS011;13745;51.470;9.894;2022-08-01T16:34:38;0.80;;;0.80;;
25946;SDS011;13745;51.470;9.894;2022-08-01T16:37:23;1.60;;;0.60;;
25946;SDS011;13745;51.470;9.894;2022-08-01T16:40:10;0.50;;;0.47;;
25946;SDS011;13745;51.470;9.894;2022-08-01T16:42:56;0.85;;;0.50;;
25946;SDS011;13745;51.470;9.894;2022-08-01T16:45:42;0.93;;;0.70;;
25946;SDS011;13745;51.470;9.894;2022-08-01T16:48:28;1.80;;;0.80;;
25946;SDS011;13745;51.470;9.894;2022-08-01T16:51:15;0.77;;;0.70;;
25946;SDS011;13745;51.470;9.894;2022-08-01T16:54:01;1.77;;;0.93;;
25946;SDS011;13745;51.470;9.894;2022-08-01T16:56:47;1.52;;;0.80;;
25946;SDS011;13745;51.470;9.894;2022-08-01T16:59:33;4.05;;;1.08;;